Hlavní strana
METAR-TAF:

METAR-TAF

Letiště :

Danville, Kentucky, Spojené státy americké

zeměpisná šířka: 37-34-40N, zeměpisná délka: 084-46-11W, výška: 312 m

Aktuální stav počasí

Zpráva byla vytvořena před 16 minutami, v 23:55 UTC
Bezvětří
Teplota 5°C
Vlhkost vzduchu 75%
Tlak 1027 hPa
Viditelnost: 16.1 km
Zataženo ve výšce 2400 ft

METAR: KDVK 072355Z AUTO 00000KT 10SM OVC024 05/01 A3032 RMK AO2

Čas: 19:11 (00:11 UTC)


TAF: chybějící

Stav a předpovědi počasí z více než 4 000 letišť (zprávy METAR a TAF).

Červené a žluté tečky na mapě představují dostupné meteorologické stanice.

Když kurzor umístíte na tečku, zobrazí se název stanice.

Pak kliknutím zobrazíte stav a předpověď počasí.

Chcete-li změnit mapu, kliknutím na zelené tlačítko se znaménkem +mapu přiblížíte, kliknutím na zelené tlačítko se znaménkem – mapu oddálíte a kliknutím na zelené šipky přejdete na sousední mapy.


METAR-TAF: